sensor_id;sensor_type;location;lat;lon;timestamp;pressure;altitude;pressure_sealevel;temperature;humidity
54407;BME280;40313;50.308;30.374;2022-11-15T00:01:47;100511.88;;;3.31;100.00
54407;BME280;40313;50.308;30.374;2022-11-15T00:04:13;100507.59;;;3.32;100.00
54407;BME280;40313;50.308;30.374;2022-11-15T00:06:40;100509.28;;;3.33;100.00
54407;BME280;40313;50.308;30.374;2022-11-15T00:09:06;100507.59;;;3.32;100.00
54407;BME280;40313;50.308;30.374;2022-11-15T00:11:33;100505.00;;;3.33;100.00
54407;BME280;40313;50.308;30.374;2022-11-15T00:14:01;100505.84;;;3.34;100.00
54407;BME280;40313;50.308;30.374;2022-11-15T00:16:28;100501.56;;;3.31;100.00
54407;BME280;40313;50.308;30.374;2022-11-15T00:18:55;100482.69;;;3.31;100.00
54407;BME280;40313;50.308;30.374;2022-11-15T00:21:22;100479.25;;;3.28;100.00
54407;BME280;40313;50.308;30.374;2022-11-15T00:23:49;100479.28;;;3.25;100.00
54407;BME280;40313;50.308;30.374;2022-11-15T00:26:15;100475.03;;;3.21;100.00
54407;BME280;40313;50.308;30.374;2022-11-15T00:28:42;100469.09;;;3.18;100.00
54407;BME280;40313;50.308;30.374;2022-11-15T00:31:13;100471.72;;;3.13;100.00
54407;BME280;40313;50.308;30.374;2022-11-15T00:33:40;100467.47;;;3.09;100.00
54407;BME280;40313;50.308;30.374;2022-11-15T00:36:09;100476.06;;;3.08;100.00
54407;BME280;40313;50.308;30.374;2022-11-15T00:38:37;100461.50;;;3.04;100.00
54407;BME280;40313;50.308;30.374;2022-11-15T00:41:05;100458.13;;;3.02;100.00
54407;BME280;40313;50.308;30.374;2022-11-15T00:43:32;100454.66;;;3.01;100.00
54407;BME280;40313;50.308;30.374;2022-11-15T00:45:59;100456.41;;;3.01;100.00
54407;BME280;40313;50.308;30.374;2022-11-15T00:48:29;100447.81;;;3.02;100.00
54407;BME280;40313;50.308;30.374;2022-11-15T00:50:57;100445.22;;;3.02;100.00
54407;BME280;40313;50.308;30.374;2022-11-15T00:53:23;100452.09;;;3.01;100.00
54407;BME280;40313;50.308;30.374;2022-11-15T00:55:50;100446.16;;;2.96;100.00
54407;BME280;40313;50.308;30.374;2022-11-15T00:58:17;100441.88;;;2.93;100.00
54407;BME280;40313;50.308;30.374;2022-11-15T01:00:44;100436.72;;;2.93;100.00
54407;BME280;40313;50.308;30.374;2022-11-15T01:03:10;100426.41;;;2.95;100.00
54407;BME280;40313;50.308;30.374;2022-11-15T01:05:38;100431.56;;;2.93;100.00
54407;BME280;40313;50.308;30.374;2022-11-15T01:08:05;100429.00;;;2.93;100.00
54407;BME280;40313;50.308;30.374;2022-11-15T01:10:33;100425.56;;;2.94;100.00
54407;BME280;40313;50.308;30.374;2022-11-15T01:12:59;100429.81;;;2.96;100.00
54407;BME280;40313;50.308;30.374;2022-11-15T01:15:26;100428.94;;;2.97;100.00
54407;BME280;40313;50.308;30.374;2022-11-15T01:17:53;100434.09;;;2.97;100.00
54407;BME280;40313;50.308;30.374;2022-11-15T01:20:20;100434.13;;;2.95;100.00
54407;BME280;40313;50.308;30.374;2022-11-15T01:22:48;100422.13;;;2.92;100.00
54407;BME280;40313;50.308;30.374;2022-11-15T01:25:15;100430.72;;;2.94;100.00
54407;BME280;40313;50.308;30.374;2022-11-15T01:27:41;100427.28;;;2.92;100.00
54407;BME280;40313;50.308;30.374;2022-11-15T01:30:09;100427.31;;;2.91;100.00
54407;BME280;40313;50.308;30.374;2022-11-15T01:32:35;100424.75;;;2.88;100.00
54407;BME280;40313;50.308;30.374;2022-11-15T01:35:03;100419.63;;;2.86;100.00
54407;BME280;40313;50.308;30.374;2022-11-15T01:37:30;100420.44;;;2.88;100.00
54407;BME280;40313;50.308;30.374;2022-11-15T01:39:58;100413.59;;;2.89;100.00
54407;BME280;40313;50.308;30.374;2022-11-15T01:42:24;100408.44;;;2.89;100.00
54407;BME280;40313;50.308;30.374;2022-11-15T01:44:52;100411.88;;;2.89;100.00
54407;BME280;40313;50.308;30.374;2022-11-15T01:47:23;100403.31;;;2.87;100.00
54407;BME280;40313;50.308;30.374;2022-11-15T01:49:55;100405.00;;;2.87;100.00
54407;BME280;40313;50.308;30.374;2022-11-15T01:52:25;100400.72;;;2.89;100.00
54407;BME280;40313;50.308;30.374;2022-11-15T01:54:58;100392.06;;;2.91;100.00
54407;BME280;40313;50.308;30.374;2022-11-15T01:57:27;100390.38;;;2.90;100.00
54407;BME280;40313;50.308;30.374;2022-11-15T01:59:55;100384.34;;;2.91;100.00
54407;BME280;40313;50.308;30.374;2022-11-15T02:02:22;100384.34;;;2.91;100.00
54407;BME280;40313;50.308;30.374;2022-11-15T02:04:49;100379.19;;;2.91;100.00
54407;BME280;40313;50.308;30.374;2022-11-15T02:07:17;100380.06;;;2.92;100.00
54407;BME280;40313;50.308;30.374;2022-11-15T02:09:44;100374.91;;;2.92;100.00
54407;BME280;40313;50.308;30.374;2022-11-15T02:12:15;100376.59;;;2.93;100.00
54407;BME280;40313;50.308;30.374;2022-11-15T02:14:46;100372.28;;;2.93;100.00
54407;BME280;40313;50.308;30.374;2022-11-15T02:17:29;100376.59;;;2.91;100.00
54407;BME280;40313;50.308;30.374;2022-11-15T02:23:10;100365.53;;;2.85;100.00
54407;BME280;40313;50.308;30.374;2022-11-15T02:25:50;100363.81;;;2.84;100.00
54407;BME280;40313;50.308;30.374;2022-11-15T02:28:35;100364.66;;;2.84;100.00
54407;BME280;40313;50.308;30.374;2022-11-15T02:31:14;100360.38;;;2.86;100.00
54407;BME280;40313;50.308;30.374;2022-11-15T02:33:50;100369.81;;;2.87;100.00
54407;BME280;40313;50.308;30.374;2022-11-15T02:36:26;100362.94;;;2.86;100.00
54407;BME280;40313;50.308;30.374;2022-11-15T02:38:59;100364.66;;;2.87;100.00
54407;BME280;40313;50.308;30.374;2022-11-15T02:41:35;100362.09;;;2.87;100.00
54407;BME280;40313;50.308;30.374;2022-11-15T02:44:09;100361.22;;;2.85;100.00
54407;BME280;40313;50.308;30.374;2022-11-15T02:46:41;100356.94;;;2.87;100.00
54407;BME280;40313;50.308;30.374;2022-11-15T02:49:28;100363.75;;;2.88;100.00
54407;BME280;40313;50.308;30.374;2022-11-15T02:51:57;100360.31;;;2.89;100.00
54407;BME280;40313;50.308;30.374;2022-11-15T02:54:26;100350.84;;;2.90;100.00
54407;BME280;40313;50.308;30.374;2022-11-15T02:56:55;100350.84;;;2.90;100.00
54407;BME280;40313;50.308;30.374;2022-11-15T02:59:50;100349.16;;;2.89;100.00
54407;BME280;40313;50.308;30.374;2022-11-15T03:02:52;100338.88;;;2.87;100.00
54407;BME280;40313;50.308;30.374;2022-11-15T03:05:29;100337.13;;;2.89;100.00
54407;BME280;40313;50.308;30.374;2022-11-15T03:08:05;100337.13;;;2.89;100.00
54407;BME280;40313;50.308;30.374;2022-11-15T03:10:42;100339.72;;;2.89;100.00
54407;BME280;40313;50.308;30.374;2022-11-15T03:13:19;100331.16;;;2.84;100.00
54407;BME280;40313;50.308;30.374;2022-11-15T03:15:54;100338.91;;;2.83;100.00
54407;BME280;40313;50.308;30.374;2022-11-15T03:18:27;100321.75;;;2.83;100.00
54407;BME280;40313;50.308;30.374;2022-11-15T03:20:58;100319.19;;;2.83;100.00
54407;BME280;40313;50.308;30.374;2022-11-15T03:23:29;100316.56;;;2.86;100.00
54407;BME280;40313;50.308;30.374;2022-11-15T03:25:58;100313.09;;;2.86;100.00
54407;BME280;40313;50.308;30.374;2022-11-15T06:13:12;100187.81;;;2.79;100.00
54407;BME280;40313;50.308;30.374;2022-11-15T06:15:39;100184.38;;;2.80;100.00
54407;BME280;40313;50.308;30.374;2022-11-15T06:18:05;100187.78;;;2.83;100.00
54407;BME280;40313;50.308;30.374;2022-11-15T06:20:32;100180.00;;;2.86;100.00
54407;BME280;40313;50.308;30.374;2022-11-15T06:22:58;100176.53;;;2.87;100.00
54407;BME280;40313;50.308;30.374;2022-11-15T06:25:25;100169.56;;;2.92;100.00
54407;BME280;40313;50.308;30.374;2022-11-15T06:27:52;100163.53;;;2.93;100.00
54407;BME280;40313;50.308;30.374;2022-11-15T06:30:20;100164.28;;;3.02;100.00
54407;BME280;40313;50.308;30.374;2022-11-15T06:32:47;100167.59;;;3.07;100.00
54407;BME280;40313;50.308;30.374;2022-11-15T06:35:14;100173.56;;;3.12;100.00
54407;BME280;40313;50.308;30.374;2022-11-15T06:37:41;100164.91;;;3.15;100.00
54407;BME280;40313;50.308;30.374;2022-11-15T06:40:09;100159.66;;;3.21;100.00
54407;BME280;40313;50.308;30.374;2022-11-15T06:42:36;100158.78;;;3.22;100.00
54407;BME280;40313;50.308;30.374;2022-11-15T06:45:02;100157.84;;;3.26;100.00
54407;BME280;40313;50.308;30.374;2022-11-15T06:47:30;100161.31;;;3.23;100.00
54407;BME280;40313;50.308;30.374;2022-11-15T06:49:57;100155.31;;;3.24;100.00
54407;BME280;40313;50.308;30.374;2022-11-15T06:52:23;100150.94;;;3.26;100.00
54407;BME280;40313;50.308;30.374;2022-11-15T06:54:50;100154.41;;;3.25;100.00
54407;BME280;40313;50.308;30.374;2022-11-15T06:57:17;100150.94;;;3.26;100.00
54407;BME280;40313;50.308;30.374;2022-11-15T06:59:43;100156.03;;;3.29;100.00
54407;BME280;40313;50.308;30.374;2022-11-15T07:02:12;100155.13;;;3.34;100.00
54407;BME280;40313;50.308;30.374;2022-11-15T07:04:40;100156.78;;;3.36;100.00
54407;BME280;40313;50.308;30.374;2022-11-15T07:07:06;100149.91;;;3.37;100.00
54407;BME280;40313;50.308;30.374;2022-11-15T07:09:33;100149.91;;;3.37;100.00
54407;BME280;40313;50.308;30.374;2022-11-15T07:12:00;100145.56;;;3.40;100.00
54407;BME280;40313;50.308;30.374;2022-11-15T07:14:26;100148.06;;;3.43;100.00
54407;BME280;40313;50.308;30.374;2022-11-15T07:16:53;100142.09;;;3.40;100.00
54407;BME280;40313;50.308;30.374;2022-11-15T07:19:19;100148.94;;;3.42;100.00
54407;BME280;40313;50.308;30.374;2022-11-15T07:21:47;100142.88;;;3.45;100.00
54407;BME280;40313;50.308;30.374;2022-11-15T07:24:13;100141.13;;;3.45;100.00
54407;BME280;40313;50.308;30.374;2022-11-15T07:26:40;100144.53;;;3.49;100.00
54407;BME280;40313;50.308;30.374;2022-11-15T07:29:06;100139.31;;;3.52;100.00
54407;BME280;40313;50.308;30.374;2022-11-15T07:31:33;100134.13;;;3.52;100.00
54407;BME280;40313;50.308;30.374;2022-11-15T07:34:00;100132.50;;;3.48;100.00
54407;BME280;40313;50.308;30.374;2022-11-15T07:36:26;100122.25;;;3.45;100.00
54407;BME280;40313;50.308;30.374;2022-11-15T07:38:54;100125.66;;;3.45;100.00
54407;BME280;40313;50.308;30.374;2022-11-15T07:41:20;100123.88;;;3.49;100.00
54407;BME280;40313;50.308;30.374;2022-11-15T07:43:51;100117.00;;;3.50;100.00
54407;BME280;40313;50.308;30.374;2022-11-15T07:46:17;100128.97;;;3.52;100.00
54407;BME280;40313;50.308;30.374;2022-11-15T07:48:44;100115.22;;;3.53;100.00
54407;BME280;40313;50.308;30.374;2022-11-15T07:51:11;100111.78;;;3.51;100.00
54407;BME280;40313;50.308;30.374;2022-11-15T07:53:39;100116.09;;;3.52;100.00
54407;BME280;40313;50.308;30.374;2022-11-15T07:56:07;100113.44;;;3.55;100.00
54407;BME280;40313;50.308;30.374;2022-11-15T07:58:34;100108.38;;;3.51;100.00
54407;BME280;40313;50.308;30.374;2022-11-15T08:01:02;100110.97;;;3.51;100.00
54407;BME280;40313;50.308;30.374;2022-11-15T08:03:29;100098.19;;;3.44;100.00
54407;BME280;40313;50.308;30.374;2022-11-15T08:05:55;100100.03;;;3.38;100.00
54407;BME280;40313;50.308;30.374;2022-11-15T08:08:22;100096.63;;;3.36;100.00
54407;BME280;40313;50.308;30.374;2022-11-15T08:10:48;100097.38;;;3.41;100.00
54407;BME280;40313;50.308;30.374;2022-11-15T08:13:16;100093.97;;;3.40;100.00
54407;BME280;40313;50.308;30.374;2022-11-15T08:15:43;100093.16;;;3.37;100.00
54407;BME280;40313;50.308;30.374;2022-11-15T08:18:12;100095.78;;;3.35;100.00
54407;BME280;40313;50.308;30.374;2022-11-15T08:20:39;100091.47;;;3.37;100.00
54407;BME280;40313;50.308;30.374;2022-11-15T08:23:06;100084.56;;;3.38;100.00
54407;BME280;40313;50.308;30.374;2022-11-15T08:25:34;100087.09;;;3.39;100.00
54407;BME280;40313;50.308;30.374;2022-11-15T08:28:03;100086.25;;;3.39;100.00
54407;BME280;40313;50.308;30.374;2022-11-15T08:30:35;100097.44;;;3.38;100.00
54407;BME280;40313;50.308;30.374;2022-11-15T08:33:02;100093.09;;;3.40;100.00
54407;BME280;40313;50.308;30.374;2022-11-15T08:35:30;100093.09;;;3.40;100.00
54407;BME280;40313;50.308;30.374;2022-11-15T08:37:56;100090.50;;;3.41;100.00
54407;BME280;40313;50.308;30.374;2022-11-15T08:40:23;100087.84;;;3.46;100.00
54407;BME280;40313;50.308;30.374;2022-11-15T08:42:49;100080.06;;;3.48;100.00
54407;BME280;40313;50.308;30.374;2022-11-15T08:45:16;100083.44;;;3.51;100.00
54407;BME280;40313;50.308;30.374;2022-11-15T08:47:44;100077.41;;;3.52;100.00
54407;BME280;40313;50.308;30.374;2022-11-15T08:50:11;100070.34;;;3.60;100.00
54407;BME280;40313;50.308;30.374;2022-11-15T08:52:37;100057.31;;;3.67;100.00
54407;BME280;40313;50.308;30.374;2022-11-15T08:55:04;100048.53;;;3.75;100.00
54407;BME280;40313;50.308;30.374;2022-11-15T08:57:31;100053.53;;;3.83;100.00
54407;BME280;40313;50.308;30.374;2022-11-15T08:59:58;100050.81;;;3.89;100.00
54407;BME280;40313;50.308;30.374;2022-11-15T09:02:24;100039.53;;;3.93;100.00
54407;BME280;40313;50.308;30.374;2022-11-15T09:04:52;100038.56;;;3.99;100.00
54407;BME280;40313;50.308;30.374;2022-11-15T09:07:19;100028.19;;;4.01;100.00
54407;BME280;40313;50.308;30.374;2022-11-15T09:09:45;100021.25;;;4.03;100.00
54407;BME280;40313;50.308;30.374;2022-11-15T09:12:12;100025.44;;;4.07;100.00
54407;BME280;40313;50.308;30.374;2022-11-15T09:14:38;100012.47;;;4.10;100.00
54407;BME280;40313;50.308;30.374;2022-11-15T09:17:07;100010.63;;;4.15;100.00
54407;BME280;40313;50.308;30.374;2022-11-15T09:19:33;100003.69;;;4.17;100.00
54407;BME280;40313;50.308;30.374;2022-11-15T09:22:01;100004.56;;;4.18;100.00
54407;BME280;40313;50.308;30.374;2022-11-15T09:24:28;99994.97;;;4.21;100.00
54407;BME280;40313;50.308;30.374;2022-11-15T09:26:54;99996.72;;;4.21;100.00
54407;BME280;40313;50.308;30.374;2022-11-15T09:29:21;99991.56;;;4.21;100.00
54407;BME280;40313;50.308;30.374;2022-11-15T09:31:47;99982.88;;;4.25;100.00
54407;BME280;40313;50.308;30.374;2022-11-15T09:34:14;99969.00;;;4.29;100.00
54407;BME280;40313;50.308;30.374;2022-11-15T09:36:40;99978.38;;;4.33;100.00
54407;BME280;40313;50.308;30.374;2022-11-15T09:39:08;99970.56;;;4.35;100.00
54407;BME280;40313;50.308;30.374;2022-11-15T09:41:50;99958.50;;;4.35;100.00
54407;BME280;40313;50.308;30.374;2022-11-15T09:44:32;99957.50;;;4.41;100.00
54407;BME280;40313;50.308;30.374;2022-11-15T09:47:10;99946.94;;;4.48;100.00
54407;BME280;40313;50.308;30.374;2022-11-15T09:49:41;99940.81;;;4.53;100.00
54407;BME280;40313;50.308;30.374;2022-11-15T09:52:10;99932.13;;;4.55;100.00
54407;BME280;40313;50.308;30.374;2022-11-15T09:54:39;99920.88;;;4.58;100.00
54407;BME280;40313;50.308;30.374;2022-11-15T09:57:12;99919.91;;;4.62;100.00
54407;BME280;40313;50.308;30.374;2022-11-15T09:59:50;99924.06;;;4.67;100.00
54407;BME280;40313;50.308;30.374;2022-11-15T10:02:30;99914.34;;;4.76;100.00
54407;BME280;40313;50.308;30.374;2022-11-15T10:05:00;99912.56;;;4.78;100.00
54407;BME280;40313;50.308;30.374;2022-11-15T10:07:40;99906.56;;;4.77;100.00
54407;BME280;40313;50.308;30.374;2022-11-15T10:10:17;99909.09;;;4.79;100.00
54407;BME280;40313;50.308;30.374;2022-11-15T10:12:50;99900.28;;;4.86;100.00
54407;BME280;40313;50.308;30.374;2022-11-15T10:15:18;99896.72;;;4.90;100.00
54407;BME280;40313;50.308;30.374;2022-11-15T10:18:09;99900.19;;;4.89;100.00
54407;BME280;40313;50.308;30.374;2022-11-15T10:20:47;99893.31;;;4.88;100.00
54407;BME280;40313;50.308;30.374;2022-11-15T10:23:16;99884.81;;;4.84;100.00
54407;BME280;40313;50.308;30.374;2022-11-15T10:25:45;99879.69;;;4.83;100.00
54407;BME280;40313;50.308;30.374;2022-11-15T10:28:15;99879.75;;;4.80;100.00
54407;BME280;40313;50.308;30.374;2022-11-15T10:30:44;99877.19;;;4.80;100.00
54407;BME280;40313;50.308;30.374;2022-11-15T10:33:23;99866.88;;;4.78;100.00
54407;BME280;40313;50.308;30.374;2022-11-15T10:36:15;99866.88;;;4.78;100.00
54407;BME280;40313;50.308;30.374;2022-11-15T10:39:00;99862.66;;;4.76;100.00
54407;BME280;40313;50.308;30.374;2022-11-15T10:41:34;99855.63;;;4.81;100.00
54407;BME280;40313;50.308;30.374;2022-11-15T10:44:17;99846.06;;;4.84;100.00
54407;BME280;40313;50.308;30.374;2022-11-15T10:46:46;99842.56;;;4.85;100.00
54407;BME280;40313;50.308;30.374;2022-11-15T10:49:17;99830.41;;;4.89;100.00
54407;BME280;40313;50.308;30.374;2022-11-15T10:51:45;99827.75;;;4.91;100.00
54407;BME280;40313;50.308;30.374;2022-11-15T10:54:16;99816.59;;;4.89;100.00
54407;BME280;40313;50.308;30.374;2022-11-15T10:56:50;99811.41;;;4.90;100.00
54407;BME280;40313;50.308;30.374;2022-11-15T10:59:24;99807.91;;;4.91;100.00
54407;BME280;40313;50.308;30.374;2022-11-15T11:01:52;99793.13;;;4.96;100.00
54407;BME280;40313;50.308;30.374;2022-11-15T11:04:18;99792.09;;;5.02;100.00
54407;BME280;40313;50.308;30.374;2022-11-15T11:06:50;99785.06;;;5.06;100.00
54407;BME280;40313;50.308;30.374;2022-11-15T11:09:28;99779.00;;;5.07;100.00
54407;BME280;40313;50.308;30.374;2022-11-15T11:11:58;99777.19;;;5.10;100.00
54407;BME280;40313;50.308;30.374;2022-11-15T11:14:27;99769.38;;;5.12;100.00
54407;BME280;40313;50.308;30.374;2022-11-15T11:17:02;99764.22;;;5.12;100.00
54407;BME280;40313;50.308;30.374;2022-11-15T11:19:54;99756.47;;;5.12;100.00
54407;BME280;40313;50.308;30.374;2022-11-15T11:22:26;99753.66;;;5.18;100.00
54407;BME280;40313;50.308;30.374;2022-11-15T11:25:04;99750.91;;;5.23;100.00
54407;BME280;40313;50.308;30.374;2022-11-15T11:27:43;99741.38;;;5.25;100.00
54407;BME280;40313;50.308;30.374;2022-11-15T11:30:14;99739.59;;;5.27;100.00
54407;BME280;40313;50.308;30.374;2022-11-15T11:32:51;99735.28;;;5.26;100.00
54407;BME280;40313;50.308;30.374;2022-11-15T11:35:26;99737.06;;;5.25;100.00
54407;BME280;40313;50.308;30.374;2022-11-15T11:38:03;99728.50;;;5.23;100.00
54407;BME280;40313;50.308;30.374;2022-11-15T11:40:39;99723.22;;;5.26;100.00
54407;BME280;40313;50.308;30.374;2022-11-15T11:43:18;99715.41;;;5.28;100.00
54407;BME280;40313;50.308;30.374;2022-11-15T11:46:02;99707.66;;;5.28;100.00
54407;BME280;40313;50.308;30.374;2022-11-15T11:48:40;99711.03;;;5.30;100.00
54407;BME280;40313;50.308;30.374;2022-11-15T11:51:13;99707.59;;;5.29;100.00
54407;BME280;40313;50.308;30.374;2022-11-15T11:53:44;99707.59;;;5.29;100.00
54407;BME280;40313;50.308;30.374;2022-11-15T11:56:18;99705.91;;;5.28;100.00
54407;BME280;40313;50.308;30.374;2022-11-15T11:58:50;99702.31;;;5.32;100.00
54407;BME280;40313;50.308;30.374;2022-11-15T12:01:23;99691.97;;;5.32;100.00
54407;BME280;40313;50.308;30.374;2022-11-15T12:03:53;99697.16;;;5.32;100.00
54407;BME280;40313;50.308;30.374;2022-11-15T12:06:27;99693.78;;;5.30;100.00
54407;BME280;40313;50.308;30.374;2022-11-15T12:09:00;99685.97;;;5.32;100.00
54407;BME280;40313;50.308;30.374;2022-11-15T12:11:29;99683.53;;;5.27;100.00
54407;BME280;40313;50.308;30.374;2022-11-15T12:14:08;99678.44;;;5.24;100.00
54407;BME280;40313;50.308;30.374;2022-11-15T12:16:39;99671.59;;;5.23;100.00
54407;BME280;40313;50.308;30.374;2022-11-15T12:19:07;99669.06;;;5.22;100.00
54407;BME280;40313;50.308;30.374;2022-11-15T12:21:39;99667.50;;;5.17;100.00
54407;BME280;40313;50.308;30.374;2022-11-15T12:24:15;99664.84;;;5.19;100.00
54407;BME280;40313;50.308;30.374;2022-11-15T12:26:49;99659.63;;;5.21;100.00
54407;BME280;40313;50.308;30.374;2022-11-15T12:29:23;99659.63;;;5.21;100.00
54407;BME280;40313;50.308;30.374;2022-11-15T12:31:53;99656.97;;;5.22;100.00
54407;BME280;40313;50.308;30.374;2022-11-15T12:34:42;99642.34;;;5.21;100.00
54407;BME280;40313;50.308;30.374;2022-11-15T12:37:32;99643.88;;;5.27;100.00
54407;BME280;40313;50.308;30.374;2022-11-15T12:40:21;99629.16;;;5.29;100.00
54407;BME280;40313;50.308;30.374;2022-11-15T12:45:41;99628.13;;;5.34;100.00
54407;BME280;40313;50.308;30.374;2022-11-15T12:54:59;99620.78;;;5.46;100.00
54407;BME280;40313;50.308;30.374;2022-11-15T12:57:35;99622.38;;;5.50;100.00
54407;BME280;40313;50.308;30.374;2022-11-15T13:03:28;99607.78;;;5.49;100.00
54407;BME280;40313;50.308;30.374;2022-11-15T13:05:56;99618.13;;;5.49;100.00
54407;BME280;40313;50.308;30.374;2022-11-15T13:08:47;99596.50;;;5.50;100.00
54407;BME280;40313;50.308;30.374;2022-11-15T13:11:43;99599.09;;;5.50;100.00
54407;BME280;40313;50.308;30.374;2022-11-15T13:14:39;99601.69;;;5.50;100.00
54407;BME280;40313;50.308;30.374;2022-11-15T13:17:19;99591.31;;;5.50;100.00
54407;BME280;40313;50.308;30.374;2022-11-15T13:19:58;99593.97;;;5.48;100.00
54407;BME280;40313;50.308;30.374;2022-11-15T13:22:25;99595.84;;;5.45;100.00
54407;BME280;40313;50.308;30.374;2022-11-15T13:25:17;99587.34;;;5.41;100.00
54407;BME280;40313;50.308;30.374;2022-11-15T13:27:46;99590.78;;;5.42;100.00
54407;BME280;40313;50.308;30.374;2022-11-15T13:30:21;99589.03;;;5.42;100.00
54407;BME280;40313;50.308;30.374;2022-11-15T13:32:49;99589.09;;;5.41;100.00
54407;BME280;40313;50.308;30.374;2022-11-15T13:35:21;99583.09;;;5.39;100.00
54407;BME280;40313;50.308;30.374;2022-11-15T13:37:49;99585.69;;;5.39;100.00
54407;BME280;40313;50.308;30.374;2022-11-15T13:40:23;99578.84;;;5.38;100.00
54407;BME280;40313;50.308;30.374;2022-11-15T13:42:52;99570.34;;;5.34;100.00
54407;BME280;40313;50.308;30.374;2022-11-15T13:45:19;99569.50;;;5.33;100.00
54407;BME280;40313;50.308;30.374;2022-11-15T13:47:51;99565.28;;;5.31;100.00
54407;BME280;40313;50.308;30.374;2022-11-15T13:50:21;99561.94;;;5.29;100.00
54407;BME280;40313;50.308;30.374;2022-11-15T13:52:52;99559.41;;;5.27;100.00
54407;BME280;40313;50.308;30.374;2022-11-15T13:55:21;99555.16;;;5.25;100.00
54407;BME280;40313;50.308;30.374;2022-11-15T13:57:51;99556.06;;;5.24;100.00
54407;BME280;40313;50.308;30.374;2022-11-15T14:00:28;99556.94;;;5.23;100.00
54407;BME280;40313;50.308;30.374;2022-11-15T14:02:57;99556.88;;;5.24;100.00
54407;BME280;40313;50.308;30.374;2022-11-15T14:05:33;99547.47;;;5.23;100.00
54407;BME280;40313;50.308;30.374;2022-11-15T14:08:02;99542.28;;;5.23;100.00
54407;BME280;40313;50.308;30.374;2022-11-15T14:10:32;99539.72;;;5.23;100.00
54407;BME280;40313;50.308;30.374;2022-11-15T14:12:59;99531.94;;;5.23;100.00
54407;BME280;40313;50.308;30.374;2022-11-15T14:15:31;99531.94;;;5.23;100.00
54407;BME280;40313;50.308;30.374;2022-11-15T14:17:58;99529.41;;;5.22;100.00
54407;BME280;40313;50.308;30.374;2022-11-15T14:20:28;99525.09;;;5.22;100.00
54407;BME280;40313;50.308;30.374;2022-11-15T14:22:58;99522.56;;;5.21;100.00
54407;BME280;40313;50.308;30.374;2022-11-15T14:25:26;99529.44;;;5.20;100.00
54407;BME280;40313;50.308;30.374;2022-11-15T14:28:11;99520.91;;;5.18;100.00
54407;BME280;40313;50.308;30.374;2022-11-15T14:30:38;99521.75;;;5.18;100.00
54407;BME280;40313;50.308;30.374;2022-11-15T14:33:18;99509.78;;;5.16;100.00
54407;BME280;40313;50.308;30.374;2022-11-15T14:35:45;99507.22;;;5.16;100.00
54407;BME280;40313;50.308;30.374;2022-11-15T14:38:13;99515.81;;;5.16;100.00
54407;BME280;40313;50.308;30.374;2022-11-15T14:40:40;99511.47;;;5.17;100.00
54407;BME280;40313;50.308;30.374;2022-11-15T14:43:08;99507.16;;;5.17;100.00
54407;BME280;40313;50.308;30.374;2022-11-15T14:45:35;99502.81;;;5.18;100.00
54407;BME280;40313;50.308;30.374;2022-11-15T14:48:01;99503.66;;;5.18;100.00
54407;BME280;40313;50.308;30.374;2022-11-15T14:50:28;99505.41;;;5.18;100.00
54407;BME280;40313;50.308;30.374;2022-11-15T14:52:55;99497.66;;;5.18;100.00
54407;BME280;40313;50.308;30.374;2022-11-15T14:55:24;99502.88;;;5.16;100.00
54407;BME280;40313;50.308;30.374;2022-11-15T14:57:52;99501.97;;;5.17;100.00
54407;BME280;40313;50.308;30.374;2022-11-15T15:00:19;99489.06;;;5.17;100.00
54407;BME280;40313;50.308;30.374;2022-11-15T15:02:47;99486.47;;;5.17;100.00
54407;BME280;40313;50.308;30.374;2022-11-15T15:05:16;99489.00;;;5.19;100.00
54407;BME280;40313;50.308;30.374;2022-11-15T15:07:43;99484.66;;;5.19;100.00
54407;BME280;40313;50.308;30.374;2022-11-15T15:10:10;99474.31;;;5.19;100.00
54407;BME280;40313;50.308;30.374;2022-11-15T15:12:38;99481.22;;;5.19;100.00
54407;BME280;40313;50.308;30.374;2022-11-15T15:15:09;99472.63;;;5.18;100.00
54407;BME280;40313;50.308;30.374;2022-11-15T15:17:38;99474.31;;;5.19;100.00
54407;BME280;40313;50.308;30.374;2022-11-15T15:20:05;99468.31;;;5.19;100.00
54407;BME280;40313;50.308;30.374;2022-11-15T15:22:32;99472.63;;;5.18;100.00
54407;BME280;40313;50.308;30.374;2022-11-15T15:24:58;99471.78;;;5.18;100.00
54407;BME280;40313;50.308;30.374;2022-11-15T15:27:25;99460.53;;;5.19;100.00
54407;BME280;40313;50.308;30.374;2022-11-15T15:29:53;99454.44;;;5.20;100.00
54407;BME280;40313;50.308;30.374;2022-11-15T15:32:19;99461.31;;;5.21;100.00
54407;BME280;40313;50.308;30.374;2022-11-15T15:34:46;99453.50;;;5.23;100.00
54407;BME280;40313;50.308;30.374;2022-11-15T15:37:22;99457.03;;;5.20;100.00
54407;BME280;40313;50.308;30.374;2022-11-15T15:39:51;99447.56;;;5.21;100.00
54407;BME280;40313;50.308;30.374;2022-11-15T15:42:18;99444.97;;;5.21;100.00
54407;BME280;40313;50.308;30.374;2022-11-15T15:44:44;99443.28;;;5.19;100.00
54407;BME280;40313;50.308;30.374;2022-11-15T15:47:13;99442.38;;;5.21;100.00
54407;BME280;40313;50.308;30.374;2022-11-15T15:49:41;99432.81;;;5.23;100.00
54407;BME280;40313;50.308;30.374;2022-11-15T15:52:08;99438.94;;;5.20;100.00
54407;BME280;40313;50.308;30.374;2022-11-15T15:54:34;99433.75;;;5.20;100.00
54407;BME280;40313;50.308;30.374;2022-11-15T15:57:01;99430.28;;;5.21;100.00
54407;BME280;40313;50.308;30.374;2022-11-15T15:59:27;99424.22;;;5.22;100.00
54407;BME280;40313;50.308;30.374;2022-11-15T16:01:54;99423.34;;;5.23;100.00
54407;BME280;40313;50.308;30.374;2022-11-15T16:04:22;99420.69;;;5.25;100.00